Time;durP1;ratioP1;P1;durP2;ratioP2;P2;SDS_P1;SDS_P2;PMS_P1;PMS_P2;Temp;Humidity;BMP_temperature;BMP_pressure;BME280_temperature;BME280_humidity;BME280_pressure;Samples;Min_cycle;Max_cycle;Signal;HPM_P1;HPM_P2
2021/01/19 00:00:38;;;;;;;10.90;3.45;;;24.90;72.70;;;;;;5070999;28;20032;-58
2021/01/19 00:03:06;;;;;;;9.75;2.88;;;25.00;72.60;;;;;;5071130;28;20025;-58
2021/01/19 00:05:33;;;;;;;8.05;3.10;;;25.00;72.60;;;;;;5070891;28;20016;-58
2021/01/19 00:08:00;;;;;;;11.98;2.97;;;25.10;72.40;;;;;;5070609;28;20024;-56
2021/01/19 00:10:28;;;;;;;8.45;2.50;;;25.10;71.90;;;;;;5070381;28;20035;-57
2021/01/19 00:12:55;;;;;;;8.55;2.90;;;25.10;71.90;;;;;;5070994;28;20025;-63
2021/01/19 00:15:22;;;;;;;10.15;3.38;;;25.10;71.60;;;;;;5069384;28;20433;-57
2021/01/19 00:17:50;;;;;;;8.00;2.70;;;25.20;71.70;;;;;;5070924;28;20028;-60
2021/01/19 00:20:17;;;;;;;6.60;2.53;;;25.20;71.20;;;;;;5071433;28;20032;-57
2021/01/19 00:22:44;;;;;;;12.55;2.90;;;25.20;71.20;;;;;;5074272;28;20048;-60
2021/01/19 00:25:12;;;;;;;8.15;2.70;;;25.20;71.00;;;;;;5074261;28;20548;-67
2021/01/19 00:27:40;;;;;;;10.30;2.97;;;25.30;70.90;;;;;;5074034;28;20097;-59
2021/01/19 00:30:08;;;;;;;9.32;3.17;;;25.30;70.10;;;;;;5074412;28;20033;-59
2021/01/19 00:32:35;;;;;;;11.57;2.88;;;25.30;70.60;;;;;;5074127;28;20115;-59
2021/01/19 00:35:02;;;;;;;9.68;3.00;;;25.40;70.50;;;;;;5073875;28;20047;-61
2021/01/19 00:37:51;;;;;;;11.27;2.67;;;25.40;70.70;;;;;;5074025;28;20028;-59
2021/01/19 00:40:20;;;;;;;10.70;2.85;;;25.40;70.60;;;;;;5072118;28;20041;-60
2021/01/19 00:42:47;;;;;;;11.80;3.75;;;25.40;70.40;;;;;;5074155;28;20017;-61
2021/01/19 00:45:15;;;;;;;9.18;3.28;;;25.40;70.00;;;;;;5073898;28;20025;-63
2021/01/19 00:47:43;;;;;;;8.75;3.05;;;25.40;70.10;;;;;;5073162;28;20294;-58
2021/01/19 00:50:11;;;;;;;13.23;3.55;;;25.50;69.00;;;;;;5073491;28;20035;-58
2021/01/19 00:52:39;;;;;;;7.35;3.30;;;25.50;69.50;;;;;;5074164;28;20086;-59
2021/01/19 00:55:10;;;;;;;12.85;3.13;;;25.50;69.10;;;;;;5073660;28;20028;-60
2021/01/19 00:57:38;;;;;;;13.25;3.65;;;25.60;69.10;;;;;;5073495;28;20017;-64
2021/01/19 01:00:07;;;;;;;7.38;3.30;;;25.60;69.50;;;;;;5065875;28;20044;-61
2021/01/19 01:02:36;;;;;;;7.28;2.65;;;25.70;67.40;;;;;;5069288;28;20025;-53
2021/01/19 01:05:05;;;;;;;19.52;4.38;;;25.70;63.60;;;;;;5069153;28;20051;-57
2021/01/19 01:07:37;;;;;;;16.20;4.60;;;25.60;63.20;;;;;;5068918;28;20150;-53
2021/01/19 01:10:09;;;;;;;14.27;2.80;;;25.60;60.30;;;;;;5069350;28;20596;-60
2021/01/19 01:12:37;;;;;;;15.45;4.00;;;25.60;59.50;;;;;;5070306;28;20051;-59
2021/01/19 01:15:06;;;;;;;19.00;3.40;;;25.60;59.90;;;;;;5069509;28;20037;-53
2021/01/19 01:17:40;;;;;;;20.85;4.45;;;25.70;58.00;;;;;;5069843;28;20104;-55
2021/01/19 01:20:12;;;;;;;16.27;3.67;;;25.80;57.70;;;;;;5067381;28;20037;-59
2021/01/19 01:22:45;;;;;;;22.40;7.32;;;25.80;57.30;;;;;;5070049;28;20444;-53
2021/01/19 01:25:14;;;;;;;14.27;4.15;;;25.90;56.80;;;;;;5069594;28;20155;-50
2021/01/19 01:27:42;;;;;;;14.73;3.70;;;26.00;56.20;;;;;;5068418;28;20090;-50
2021/01/19 01:30:11;;;;;;;15.93;3.60;;;26.00;56.60;;;;;;5066362;28;20473;-49
2021/01/19 01:32:40;;;;;;;17.02;4.15;;;26.10;56.80;;;;;;5067413;28;20036;-62
2021/01/19 01:35:09;;;;;;;11.98;3.53;;;26.00;57.30;;;;;;5069679;28;20044;-61
2021/01/19 01:37:43;;;;;;;13.48;3.60;;;26.00;57.80;;;;;;5068217;28;20031;-62
2021/01/19 01:40:11;;;;;;;11.55;3.22;;;26.00;58.30;;;;;;5065870;28;20032;-62
2021/01/19 01:42:38;;;;;;;11.35;3.25;;;26.00;58.10;;;;;;5069864;28;20027;-54
2021/01/19 01:45:06;;;;;;;13.38;4.03;;;26.10;58.30;;;;;;5068938;28;20060;-58
2021/01/19 01:47:34;;;;;;;16.23;3.65;;;26.10;58.60;;;;;;5069216;28;20040;-54
2021/01/19 01:50:02;;;;;;;12.25;4.18;;;26.10;58.70;;;;;;5064232;28;20195;-61
2021/01/19 01:52:30;;;;;;;9.13;3.03;;;26.10;58.80;;;;;;5069136;28;20093;-64
2021/01/19 01:54:58;;;;;;;19.02;3.92;;;26.10;58.90;;;;;;5069592;28;20031;-56
2021/01/19 01:57:25;;;;;;;14.30;3.63;;;26.20;58.60;;;;;;5069130;28;20517;-55
2021/01/19 01:59:59;;;;;;;10.60;3.83;;;26.20;58.70;;;;;;5065125;28;20040;-53
2021/01/19 02:02:26;;;;;;;10.20;3.80;;;26.20;59.10;;;;;;5067462;28;20055;-58
2021/01/19 02:04:53;;;;;;;13.02;3.58;;;26.20;58.90;;;;;;5069041;28;20024;-61
2021/01/19 02:07:52;;;;;;;17.95;4.70;;;26.20;59.20;;;;;;5069410;28;20050;-59
2021/01/19 02:10:43;;;;;;;11.43;4.50;;;26.20;59.70;;;;;;5027404;28;20098;-57
2021/01/19 02:13:30;;;;;;;11.48;3.78;;;26.20;60.40;;;;;;5070003;28;20137;-61
2021/01/19 02:16:32;;;;;;;11.73;3.33;;;26.20;59.90;;;;;;5067699;28;20028;-63
2021/01/19 02:19:28;;;;;;;;;;;26.20;60.50;;;;;;5056099;28;20035;-62
2021/01/19 02:22:10;;;;;;;11.18;3.72;;;26.10;60.50;;;;;;5062261;28;19916;-60
2021/01/19 02:25:10;;;;;;;7.85;2.97;;;26.20;60.60;;;;;;5069091;28;20024;-59
2021/01/19 02:27:59;;;;;;;12.93;4.28;;;26.10;60.10;;;;;;5065937;28;20035;-61
2021/01/19 02:30:53;;;;;;;11.00;3.40;;;26.10;60.90;;;;;;5063581;28;20444;-56
2021/01/19 02:33:56;;;;;;;15.40;3.78;;;26.10;61.20;;;;;;5050963;28;20132;-57
2021/01/19 02:36:38;;;;;;;12.90;3.83;;;26.10;62.00;;;;;;5054601;28;20028;-61
2021/01/19 02:39:07;;;;;;;12.52;3.80;;;26.10;62.70;;;;;;5065008;28;20037;-47
2021/01/19 02:41:43;;;;;;;11.90;3.58;;;26.10;63.20;;;;;;5068708;28;20036;-62
2021/01/19 02:44:25;;;;;;;17.05;4.28;;;26.10;63.00;;;;;;5067883;28;20382;-53
2021/01/19 02:46:58;;;;;;;12.00;3.83;;;26.10;63.10;;;;;;5065482;28;20035;-61
2021/01/19 02:49:26;;;;;;;13.13;3.17;;;26.00;62.90;;;;;;5063560;28;20498;-49
2021/01/19 02:51:55;;;;;;;14.88;4.07;;;26.00;63.20;;;;;;5068763;28;20044;-52
2021/01/19 02:54:23;;;;;;;11.85;3.35;;;25.90;63.10;;;;;;5068918;28;20035;-56
2021/01/19 02:57:05;;;;;;;10.32;3.28;;;26.00;63.20;;;;;;5066636;28;20789;-56
2021/01/19 02:59:58;;;;;;;9.32;3.33;;;25.90;63.50;;;;;;5063350;28;20034;-58
2021/01/19 03:02:30;;;;;;;12.07;4.13;;;25.90;63.50;;;;;;5067430;28;20446;-53
2021/01/19 03:05:01;;;;;;;10.70;3.22;;;25.90;63.90;;;;;;5068200;28;20093;-55
2021/01/19 03:07:33;;;;;;;14.63;3.53;;;25.90;63.70;;;;;;5066910;28;20046;-59
2021/01/19 03:10:03;;;;;;;18.08;4.07;;;25.90;64.00;;;;;;5063998;28;20029;-58
2021/01/19 03:12:33;;;;;;;15.27;3.55;;;25.80;63.80;;;;;;5067379;28;20387;-54
2021/01/19 03:15:01;;;;;;;13.48;4.55;;;25.80;63.80;;;;;;5068644;28;20032;-58
2021/01/19 03:17:29;;;;;;;18.45;4.43;;;25.80;64.50;;;;;;5067507;28;20024;-65
2021/01/19 03:19:56;;;;;;;11.48;3.85;;;25.80;64.10;;;;;;5064245;28;20039;-60
2021/01/19 03:22:23;;;;;;;13.05;3.85;;;25.80;64.20;;;;;;5068168;28;20091;-56
2021/01/19 03:24:51;;;;;;;17.33;4.22;;;25.80;64.60;;;;;;5067518;28;20103;-61
2021/01/19 03:27:18;;;;;;;16.45;3.97;;;25.80;64.40;;;;;;5068024;28;20384;-52
2021/01/19 03:29:45;;;;;;;11.38;3.95;;;25.70;64.20;;;;;;5064058;28;20021;-54
2021/01/19 03:32:13;;;;;;;13.35;4.22;;;25.70;64.10;;;;;;5069197;28;20031;-63
2021/01/19 03:34:40;;;;;;;11.18;3.40;;;25.70;63.90;;;;;;5067728;28;20112;-56
2021/01/19 03:37:09;;;;;;;12.25;3.10;;;25.70;64.40;;;;;;5067006;28;20029;-65
2021/01/19 03:39:36;;;;;;;20.77;4.43;;;25.70;64.10;;;;;;5064293;28;20033;-59
2021/01/19 03:42:04;;;;;;;13.48;4.15;;;25.70;64.20;;;;;;5067279;28;20012;-59
2021/01/19 03:44:31;;;;;;;15.32;4.07;;;25.70;64.10;;;;;;5066916;28;20016;-59
2021/01/19 03:46:58;;;;;;;15.20;5.05;;;25.70;64.20;;;;;;5067395;28;20020;-55
2021/01/19 03:49:26;;;;;;;14.38;4.15;;;25.70;64.50;;;;;;5063571;28;20020;-55
2021/01/19 03:51:53;;;;;;;15.25;4.72;;;25.70;64.30;;;;;;5067390;28;20060;-58
2021/01/19 03:54:20;;;;;;;14.68;4.05;;;25.60;64.30;;;;;;5068070;28;20051;-57
2021/01/19 03:56:48;;;;;;;15.70;4.80;;;25.60;64.30;;;;;;5071042;28;20445;-55
2021/01/19 03:59:15;;;;;;;10.55;4.10;;;25.60;64.00;;;;;;5067339;28;20120;-55
2021/01/19 04:01:43;;;;;;;10.90;4.10;;;25.60;64.10;;;;;;5068504;28;20949;-55
2021/01/19 04:04:11;;;;;;;16.30;4.55;;;25.60;64.00;;;;;;5068475;28;20032;-60
2021/01/19 04:06:38;;;;;;;14.85;4.63;;;25.50;64.00;;;;;;5071484;28;20029;-57
2021/01/19 04:09:06;;;;;;;15.00;4.07;;;25.50;64.40;;;;;;5066999;28;21153;-58
2021/01/19 04:11:33;;;;;;;13.02;3.58;;;25.50;64.50;;;;;;5071157;28;20044;-56
2021/01/19 04:14:00;;;;;;;11.45;3.97;;;25.50;64.40;;;;;;5070980;28;20031;-56
2021/01/19 04:16:28;;;;;;;16.85;4.22;;;25.50;64.60;;;;;;5070681;28;20029;-53
2021/01/19 04:18:55;;;;;;;19.50;4.32;;;25.50;64.10;;;;;;5066851;28;20031;-63
2021/01/19 04:21:25;;;;;;;10.57;3.67;;;25.60;64.20;;;;;;5071350;28;20135;-54
2021/01/19 04:23:52;;;;;;;10.05;4.32;;;25.60;64.00;;;;;;5071099;28;20032;-54
2021/01/19 04:26:20;;;;;;;12.40;4.10;;;25.60;63.60;;;;;;5070789;28;20491;-59
2021/01/19 04:28:48;;;;;;;9.98;4.20;;;25.70;63.70;;;;;;5066554;28;20131;-56
2021/01/19 04:31:15;;;;;;;11.65;4.00;;;25.70;63.80;;;;;;5070818;28;20033;-57
2021/01/19 04:33:42;;;;;;;12.00;3.65;;;25.70;63.80;;;;;;5069990;28;20043;-58
2021/01/19 04:36:10;;;;;;;12.98;4.05;;;25.70;63.90;;;;;;5070178;28;20030;-52
2021/01/19 04:38:37;;;;;;;10.25;3.75;;;25.80;64.00;;;;;;5068671;28;20059;-57
2021/01/19 04:41:08;;;;;;;9.40;3.90;;;25.80;63.50;;;;;;5068730;28;20040;-56
2021/01/19 04:43:36;;;;;;;11.90;4.25;;;25.80;63.50;;;;;;5071115;28;20859;-57
2021/01/19 04:46:06;;;;;;;11.73;3.53;;;25.80;63.40;;;;;;5070502;28;20036;-54
2021/01/19 04:48:34;;;;;;;14.77;4.38;;;25.80;63.60;;;;;;5068592;28;20043;-60
2021/01/19 04:51:05;;;;;;;13.27;4.07;;;25.80;63.20;;;;;;5068533;28;20025;-57
2021/01/19 04:53:39;;;;;;;13.07;4.22;;;25.90;63.10;;;;;;5070878;28;20036;-60
2021/01/19 04:56:16;;;;;;;16.38;4.50;;;25.90;63.40;;;;;;5070771;28;20045;-56
2021/01/19 04:58:47;;;;;;;7.65;3.17;;;25.90;63.10;;;;;;5067799;28;20839;-60
2021/01/19 05:01:39;;;;;;;14.18;4.20;;;25.90;63.60;;;;;;5069589;28;20037;-62
2021/01/19 05:04:54;;;;;;;28.08;7.22;;;25.90;63.30;;;;;;5069684;28;20067;-60
2021/01/19 05:07:34;;;;;;;23.17;6.10;;;25.50;56.00;;;;;;5070022;28;20098;-57
2021/01/19 05:10:22;;;;;;;21.73;6.53;;;25.10;64.10;;;;;;5066347;28;20032;-54
2021/01/19 05:12:59;;;;;;;27.60;8.73;;;24.70;61.90;;;;;;5069454;28;20479;-60
2021/01/19 05:15:28;;;;;;;24.70;7.22;;;24.60;65.40;;;;;;5067930;28;20394;-55
2021/01/19 05:17:59;;;;;;;30.73;6.28;;;24.60;60.00;;;;;;5067793;28;20033;-52
2021/01/19 05:20:31;;;;;;;28.67;8.50;;;24.60;57.40;;;;;;5064387;28;20037;-56
2021/01/19 05:22:58;;;;;;;34.42;10.23;;;24.50;63.40;;;;;;5067410;28;20379;-58
2021/01/19 05:25:26;;;;;;;25.80;11.10;;;24.30;61.50;;;;;;5069608;28;20734;-58
2021/01/19 05:27:54;;;;;;;26.10;11.73;;;24.60;64.20;;;;;;5069887;28;20024;-59
2021/01/19 05:30:22;;;;;;;22.10;10.52;;;24.90;63.50;;;;;;5065888;28;20443;-58
2021/01/19 05:32:49;;;;;;;24.45;7.53;;;25.10;63.10;;;;;;5068912;28;20020;-60
2021/01/19 05:35:19;;;;;;;26.55;7.55;;;25.10;60.70;;;;;;5069168;28;20540;-59
2021/01/19 05:38:02;;;;;;;23.40;7.22;;;24.60;60.70;;;;;;5068934;28;20036;-56
2021/01/19 05:40:29;;;;;;;26.30;9.45;;;24.50;55.90;;;;;;5064035;28;20048;-51
2021/01/19 05:42:57;;;;;;;30.50;11.68;;;24.00;58.00;;;;;;5069868;28;20027;-56
2021/01/19 05:45:25;;;;;;;33.72;10.88;;;23.90;58.30;;;;;;5069135;28;20130;-54
2021/01/19 05:47:54;;;;;;;22.75;12.05;;;23.90;57.60;;;;;;5068749;28;20444;-58
2021/01/19 05:50:21;;;;;;;30.83;10.10;;;24.20;57.80;;;;;;5065374;28;20467;-56
2021/01/19 05:52:52;;;;;;;35.28;9.00;;;24.40;60.10;;;;;;5069440;28;20104;-56
2021/01/19 05:55:27;;;;;;;42.42;28.52;;;24.10;57.80;;;;;;5068068;28;20024;-56
2021/01/19 05:57:56;;;;;;;36.22;11.80;;;24.30;59.90;;;;;;5069129;28;20020;-55
2021/01/19 06:00:28;;;;;;;23.88;13.23;;;24.40;61.90;;;;;;5064890;28;20032;-62
2021/01/19 06:02:58;;;;;;;29.25;9.35;;;24.50;62.10;;;;;;5068834;28;20086;-53
2021/01/19 06:05:32;;;;;;;33.10;8.63;;;24.40;57.20;;;;;;5068723;28;20431;-56
2021/01/19 06:08:02;;;;;;;33.03;12.02;;;24.30;59.50;;;;;;5068738;28;20103;-62
2021/01/19 06:10:31;;;;;;;22.50;6.25;;;24.30;62.40;;;;;;5064769;28;20036;-61
2021/01/19 06:13:01;;;;;;;28.17;6.88;;;24.20;61.10;;;;;;5069265;28;20466;-55
2021/01/19 06:15:29;;;;;;;27.65;6.80;;;24.50;61.90;;;;;;5067485;28;20056;-59
2021/01/19 06:17:57;;;;;;;19.23;7.63;;;24.50;56.00;;;;;;5068325;28;20029;-55
2021/01/19 06:20:24;;;;;;;20.25;7.93;;;24.50;60.50;;;;;;5064378;28;20056;-64
2021/01/19 06:22:52;;;;;;;27.30;8.85;;;24.60;58.90;;;;;;5068650;28;20029;-62
2021/01/19 06:25:19;;;;;;;25.08;6.18;;;24.20;59.40;;;;;;5068022;28;20040;-53
2021/01/19 06:27:46;;;;;;;23.88;8.30;;;24.10;59.50;;;;;;5068905;28;20130;-63
2021/01/19 06:30:15;;;;;;;27.30;7.20;;;24.30;61.90;;;;;;5061080;28;20480;-59
2021/01/19 06:32:51;;;;;;;25.58;8.63;;;24.30;59.20;;;;;;5067823;28;20093;-49
2021/01/19 06:35:23;;;;;;;24.40;7.00;;;24.60;59.70;;;;;;5068364;28;20089;-49
2021/01/19 06:37:55;;;;;;;21.60;7.72;;;24.80;60.20;;;;;;5068149;28;20027;-49
2021/01/19 06:40:25;;;;;;;22.60;6.78;;;24.90;58.70;;;;;;5063471;28;20037;-52
2021/01/19 06:43:02;;;;;;;23.35;6.60;;;25.00;59.40;;;;;;5068570;28;20115;-55
2021/01/19 06:45:30;;;;;;;21.45;6.75;;;25.10;58.40;;;;;;5068460;28;20391;-53
2021/01/19 06:48:01;;;;;;;21.88;5.90;;;25.00;58.70;;;;;;5067243;28;20055;-51
2021/01/19 06:50:34;;;;;;;24.58;6.50;;;25.00;58.00;;;;;;5064380;28;20392;-54
2021/01/19 06:53:14;;;;;;;13.20;5.38;;;25.00;58.40;;;;;;5068477;28;20029;-47
2021/01/19 06:55:46;;;;;;;19.45;5.35;;;24.90;57.90;;;;;;5068169;28;20032;-50
2021/01/19 06:58:23;;;;;;;22.08;5.65;;;24.70;57.80;;;;;;5067806;28;20067;-50
2021/01/19 07:00:59;;;;;;;22.77;6.13;;;24.70;58.60;;;;;;5063920;28;20097;-51
2021/01/19 07:03:27;;;;;;;21.63;5.38;;;24.60;58.70;;;;;;5067896;28;20029;-50
2021/01/19 07:06:00;;;;;;;23.02;6.13;;;24.70;58.90;;;;;;5068408;28;20365;-52
2021/01/19 07:09:01;;;;;;;24.23;6.95;;;24.60;58.20;;;;;;5064983;28;20032;-49
2021/01/19 07:11:52;;;;;;;24.58;6.22;;;24.60;59.10;;;;;;5067443;28;20021;-55
2021/01/19 07:14:36;;;;;;;21.98;5.82;;;24.60;59.60;;;;;;5071063;28;20029;-52
2021/01/19 07:17:18;;;;;;;21.48;6.03;;;24.60;58.80;;;;;;5071177;28;20107;-50
2021/01/19 07:19:48;;;;;;;30.20;7.43;;;24.50;59.80;;;;;;5070931;28;20111;-53
2021/01/19 07:22:47;;;;;;;21.95;6.07;;;24.40;58.50;;;;;;5070963;28;20092;-54
2021/01/19 07:25:15;;;;;;;22.90;6.03;;;24.40;59.70;;;;;;5067484;28;20033;-55
2021/01/19 07:27:42;;;;;;;28.00;7.07;;;24.50;59.30;;;;;;5068739;28;20529;-52
2021/01/19 07:30:15;;;;;;;18.95;5.80;;;24.60;60.00;;;;;;5070739;28;20099;-53
2021/01/19 07:32:45;;;;;;;28.10;6.07;;;24.60;59.40;;;;;;5073724;28;20625;-51
2021/01/19 07:35:15;;;;;;;22.15;5.72;;;24.70;58.40;;;;;;5062098;28;20037;-51
2021/01/19 07:37:42;;;;;;;17.15;5.05;;;24.60;57.70;;;;;;5053715;28;20047;-54
2021/01/19 07:40:28;;;;;;;18.85;5.93;;;24.50;60.00;;;;;;5052548;28;20090;-56
2021/01/19 07:42:55;;;;;;;13.38;4.68;;;24.50;58.20;;;;;;5053143;28;20032;-62
2021/01/19 07:45:33;;;;;;;13.43;4.50;;;24.50;60.30;;;;;;5055023;28;20029;-62
2021/01/19 07:48:08;;;;;;;19.35;5.68;;;24.60;60.10;;;;;;5055089;28;20025;-67
2021/01/19 07:50:46;;;;;;;12.40;4.47;;;24.60;59.60;;;;;;5054998;28;20032;-66
2021/01/19 07:53:13;;;;;;;15.88;4.78;;;24.60;59.50;;;;;;5055068;28;20029;-65
2021/01/19 07:55:48;;;;;;;19.80;5.32;;;24.60;59.50;;;;;;5054311;28;20021;-70
2021/01/19 07:58:20;;;;;;;18.33;4.60;;;24.70;59.20;;;;;;5060832;28;20071;-59
2021/01/19 08:00:55;;;;;;;20.25;5.03;;;24.70;59.20;;;;;;5068728;28;20329;-62
2021/01/19 08:03:33;;;;;;;18.85;4.80;;;24.70;59.30;;;;;;5068033;28;20070;-58
2021/01/19 08:06:10;;;;;;;20.60;5.05;;;24.70;59.10;;;;;;5070210;28;20024;-61
2021/01/19 08:08:41;;;;;;;20.48;4.93;;;24.80;59.30;;;;;;5070766;28;20107;-59
2021/01/19 08:11:22;;;;;;;24.40;5.60;;;24.80;59.20;;;;;;5071935;28;20078;-61
2021/01/19 08:14:00;;;;;;;15.10;5.30;;;24.80;59.00;;;;;;5067362;28;20031;-62
2021/01/19 08:16:32;;;;;;;17.52;4.72;;;24.90;59.30;;;;;;5068164;28;20483;-60
2021/01/19 08:19:14;;;;;;;14.95;4.65;;;24.80;59.30;;;;;;5069965;28;20399;-64
2021/01/19 08:21:48;;;;;;;15.82;5.00;;;24.90;59.60;;;;;;5070552;28;20497;-60
2021/01/19 08:24:15;;;;;;;16.08;4.32;;;24.90;59.20;;;;;;5067619;28;20070;-47
2021/01/19 08:26:44;;;;;;;17.52;5.20;;;24.90;59.20;;;;;;5071062;28;20028;-54
2021/01/19 08:29:12;;;;;;;15.32;5.53;;;24.80;59.40;;;;;;5071308;28;20047;-51
2021/01/19 08:31:40;;;;;;;16.40;5.90;;;24.80;59.40;;;;;;5069957;28;20325;-51
2021/01/19 08:34:08;;;;;;;18.52;5.30;;;24.80;59.50;;;;;;5066864;28;20037;-55
2021/01/19 08:36:36;;;;;;;20.77;6.13;;;24.80;59.70;;;;;;5071164;28;20029;-54
2021/01/19 08:39:09;;;;;;;18.40;5.85;;;24.80;60.40;;;;;;5071245;28;20024;-57
2021/01/19 08:41:45;;;;;;;23.80;5.80;;;24.80;59.70;;;;;;5070096;28;20048;-57
2021/01/19 08:44:14;;;;;;;17.02;5.10;;;24.80;60.10;;;;;;5066914;28;20174;-53
2021/01/19 08:46:42;;;;;;;14.90;4.93;;;24.80;60.10;;;;;;5070357;28;20029;-54
2021/01/19 08:49:14;;;;;;;16.98;5.47;;;24.90;60.20;;;;;;5068584;28;20439;-54
2021/01/19 08:51:54;;;;;;;18.45;5.75;;;24.80;60.40;;;;;;5067832;28;20420;-57
2021/01/19 08:54:21;;;;;;;14.35;4.65;;;24.80;60.50;;;;;;5064991;28;20028;-55
2021/01/19 08:56:49;;;;;;;22.35;5.28;;;24.80;60.50;;;;;;5069783;28;20058;-53
2021/01/19 08:59:19;;;;;;;16.48;6.03;;;24.80;61.30;;;;;;5065852;28;20032;-57
2021/01/19 09:01:53;;;;;;;17.52;5.75;;;24.80;61.80;;;;;;5066259;28;20033;-49
2021/01/19 09:04:31;;;;;;;19.60;5.53;;;24.70;62.10;;;;;;5063977;28;20403;-52
2021/01/19 09:07:10;;;;;;;20.15;6.43;;;24.70;62.60;;;;;;5068966;28;20494;-55
2021/01/19 09:09:45;;;;;;;26.63;5.97;;;24.70;62.50;;;;;;5067910;28;20082;-59
2021/01/19 09:12:20;;;;;;;18.92;5.90;;;24.70;62.60;;;;;;5068280;28;20483;-55
2021/01/19 09:14:52;;;;;;;19.73;6.75;;;24.70;63.60;;;;;;5065874;28;20029;-53
2021/01/19 09:17:29;;;;;;;21.75;5.43;;;24.70;63.00;;;;;;5067764;28;20024;-54
2021/01/19 09:20:07;;;;;;;23.15;6.10;;;24.70;62.70;;;;;;5070340;28;20517;-55
2021/01/19 09:22:34;;;;;;;18.00;5.40;;;24.70;63.10;;;;;;5068516;28;20052;-56
2021/01/19 09:25:03;;;;;;;21.63;6.35;;;24.70;63.10;;;;;;5065967;28;20094;-60
2021/01/19 09:27:32;;;;;;;20.70;6.07;;;24.70;64.00;;;;;;5069971;28;20532;-52
2021/01/19 09:30:11;;;;;;;17.10;6.22;;;24.60;63.80;;;;;;5069701;28;20029;-52
2021/01/19 09:32:43;;;;;;;18.45;5.72;;;24.70;64.10;;;;;;5069449;28;20383;-57
2021/01/19 09:35:11;;;;;;;;;;;24.60;64.20;;;;;;5066024;28;20585;-52
2021/01/19 09:37:39;;;;;;;22.55;6.60;;;24.60;63.80;;;;;;5070015;28;19905;-58
2021/01/19 09:40:08;;;;;;;23.67;6.38;;;24.60;64.80;;;;;;5069838;28;20119;-54
2021/01/19 09:42:42;;;;;;;13.48;4.68;;;24.60;64.30;;;;;;5068087;28;20486;-54
2021/01/19 09:45:12;;;;;;;19.08;5.75;;;24.70;64.50;;;;;;5066047;28;20093;-53
2021/01/19 09:47:42;;;;;;;31.85;5.53;;;24.70;66.00;;;;;;5069612;28;20021;-64
2021/01/19 09:50:11;;;;;;;19.48;5.38;;;24.70;66.90;;;;;;5069475;28;20024;-68
2021/01/19 09:52:46;;;;;;;27.05;5.90;;;24.70;67.70;;;;;;5069406;28;20029;-58
2021/01/19 09:55:17;;;;;;;21.23;5.93;;;24.70;66.70;;;;;;5065926;28;20028;-55
2021/01/19 09:57:44;;;;;;;20.00;5.80;;;24.70;66.80;;;;;;5069073;28;20044;-55
2021/01/19 10:00:13;;;;;;;18.40;5.85;;;24.70;66.50;;;;;;5069393;28;20029;-63
2021/01/19 10:02:41;;;;;;;17.40;5.22;;;24.70;66.00;;;;;;5069752;28;20036;-61
2021/01/19 10:05:09;;;;;;;15.65;5.43;;;24.70;65.90;;;;;;5065217;28;20493;-55
2021/01/19 10:07:36;;;;;;;17.58;5.55;;;24.70;65.60;;;;;;5067172;28;20039;-49
2021/01/19 10:10:21;;;;;;;26.60;6.03;;;24.70;65.90;;;;;;5069665;28;20028;-51
2021/01/19 10:12:49;;;;;;;15.88;5.35;;;24.70;65.90;;;;;;5068688;28;20021;-50
2021/01/19 10:15:19;;;;;;;22.80;5.65;;;24.60;65.50;;;;;;5065885;28;20060;-53
2021/01/19 10:17:47;;;;;;;22.63;5.85;;;24.60;65.50;;;;;;5067668;28;20116;-53
2021/01/19 10:20:16;;;;;;;18.58;5.05;;;24.60;65.30;;;;;;5066787;28;20028;-58
2021/01/19 10:22:48;;;;;;;14.55;4.72;;;24.60;65.50;;;;;;5067872;28;20067;-61
2021/01/19 10:25:30;;;;;;;17.35;5.10;;;24.50;64.50;;;;;;5064722;28;20024;-61
2021/01/19 10:27:59;;;;;;;17.65;5.68;;;24.50;65.60;;;;;;5064182;28;20029;-54
2021/01/19 10:30:34;;;;;;;16.42;5.45;;;24.50;65.90;;;;;;5067998;28;20056;-58
2021/01/19 10:33:02;;;;;;;15.90;5.57;;;24.50;65.70;;;;;;5068102;28;20024;-60
2021/01/19 10:35:36;;;;;;;15.57;5.30;;;24.50;65.60;;;;;;5063194;28;20029;-54
2021/01/19 10:38:06;;;;;;;21.50;6.32;;;24.50;65.60;;;;;;5069011;28;20064;-52
2021/01/19 10:40:35;;;;;;;15.77;5.25;;;24.50;65.40;;;;;;5068295;28;20045;-62
2021/01/19 10:43:11;;;;;;;19.75;5.82;;;24.50;65.20;;;;;;5067314;28;20529;-57
2021/01/19 10:45:43;;;;;;;16.42;5.63;;;24.50;65.10;;;;;;5065604;28;20036;-58
2021/01/19 10:48:21;;;;;;;14.00;4.60;;;24.50;65.10;;;;;;5068504;28;20109;-52
2021/01/19 10:50:49;;;;;;;18.45;5.78;;;24.50;65.10;;;;;;5067588;28;20032;-60
2021/01/19 10:53:28;;;;;;;16.42;5.43;;;24.50;64.90;;;;;;5069074;28;20173;-60
2021/01/19 10:55:55;;;;;;;17.30;4.97;;;24.50;64.90;;;;;;5065485;28;20036;-61
2021/01/19 10:58:22;;;;;;;15.05;5.10;;;24.50;64.50;;;;;;5065887;28;20028;-58
2021/01/19 11:00:50;;;;;;;15.07;4.55;;;24.50;64.60;;;;;;5069285;28;20490;-61
2021/01/19 11:03:17;;;;;;;12.68;4.18;;;24.50;64.60;;;;;;5068158;28;20031;-57
2021/01/19 11:05:44;;;;;;;16.80;4.75;;;24.50;64.60;;;;;;5065003;28;20036;-62
2021/01/19 11:08:12;;;;;;;19.25;4.95;;;24.40;64.60;;;;;;5069080;28;20036;-57
2021/01/19 11:10:39;;;;;;;17.25;5.07;;;24.40;64.60;;;;;;5068803;28;20020;-62
2021/01/19 11:13:06;;;;;;;16.80;5.25;;;24.40;64.50;;;;;;5067596;28;20033;-51
2021/01/19 11:15:34;;;;;;;11.82;3.25;;;24.40;64.50;;;;;;5064943;28;20024;-64
2021/01/19 11:18:01;;;;;;;13.38;5.00;;;24.40;64.60;;;;;;5067529;28;20039;-59
2021/01/19 11:20:29;;;;;;;12.85;3.78;;;24.40;64.50;;;;;;5066005;28;20498;-60
2021/01/19 11:22:57;;;;;;;13.27;4.25;;;24.40;64.50;;;;;;5067619;28;20457;-55
2021/01/19 11:25:24;;;;;;;10.20;3.88;;;24.40;64.50;;;;;;5064344;28;20025;-62
2021/01/19 11:27:51;;;;;;;13.52;4.97;;;24.40;64.50;;;;;;5068434;28;20375;-61
2021/01/19 11:30:19;;;;;;;17.50;5.50;;;24.30;64.50;;;;;;5068608;28;20394;-62
2021/01/19 11:32:46;;;;;;;15.57;4.28;;;24.30;64.50;;;;;;5068305;28;20020;-62
2021/01/19 11:35:14;;;;;;;9.60;3.75;;;24.40;64.50;;;;;;5064767;28;20043;-64
2021/01/19 11:37:41;;;;;;;14.23;4.07;;;24.30;64.40;;;;;;5067920;28;20043;-56
2021/01/19 11:40:09;;;;;;;15.95;4.65;;;24.30;64.50;;;;;;5068608;28;20029;-59
2021/01/19 11:42:36;;;;;;;13.60;4.25;;;24.30;64.50;;;;;;5068528;28;20025;-59
2021/01/19 11:45:05;;;;;;;13.23;3.88;;;24.30;64.40;;;;;;5063972;28;20025;-56
2021/01/19 11:47:33;;;;;;;9.73;3.75;;;24.30;64.40;;;;;;5068254;28;20036;-59
2021/01/19 11:50:00;;;;;;;13.85;3.92;;;24.30;64.40;;;;;;5070011;28;20036;-57
2021/01/19 11:52:27;;;;;;;13.50;4.13;;;24.30;64.30;;;;;;5071492;28;20052;-58
2021/01/19 11:54:55;;;;;;;14.00;3.40;;;24.30;64.20;;;;;;5071607;28;20104;-56
2021/01/19 11:57:23;;;;;;;8.43;3.45;;;24.30;64.10;;;;;;5071258;28;20047;-54
2021/01/19 11:59:50;;;;;;;7.00;3.10;;;24.30;64.10;;;;;;5070116;28;20035;-58
2021/01/19 12:02:17;;;;;;;10.05;3.63;;;24.30;64.20;;;;;;5071054;28;20071;-61
2021/01/19 12:04:45;;;;;;;8.13;3.63;;;24.30;64.20;;;;;;5071241;28;20459;-56
2021/01/19 12:07:13;;;;;;;12.07;3.72;;;24.20;64.10;;;;;;5071240;28;20032;-63
2021/01/19 12:09:40;;;;;;;10.30;4.03;;;24.30;64.30;;;;;;5071171;28;20096;-60
2021/01/19 12:12:08;;;;;;;10.57;3.45;;;24.20;64.30;;;;;;5071485;28;20162;-63
2021/01/19 12:14:35;;;;;;;10.80;3.03;;;24.10;64.30;;;;;;5071458;28;20074;-56
2021/01/19 12:17:02;;;;;;;10.32;3.25;;;24.10;64.40;;;;;;5072497;28;20351;-57
2021/01/19 12:19:30;;;;;;;12.48;3.67;;;24.10;64.50;;;;;;5075000;28;20029;-66
2021/01/19 12:21:58;;;;;;;9.90;3.45;;;24.10;64.60;;;;;;5074870;28;20057;-61
2021/01/19 12:24:26;;;;;;;8.00;3.42;;;24.00;64.50;;;;;;5075200;28;20421;-62
2021/01/19 12:26:58;;;;;;;16.60;5.10;;;24.00;64.40;;;;;;5075010;28;20032;-61
2021/01/19 12:29:26;;;;;;;9.38;3.10;;;24.00;64.50;;;;;;5075060;28;20020;-60
2021/01/19 12:32:02;;;;;;;10.88;3.40;;;24.00;64.60;;;;;;5074651;28;20127;-62
2021/01/19 12:34:29;;;;;;;9.25;2.90;;;24.00;64.70;;;;;;5074957;28;20021;-59
2021/01/19 12:36:57;;;;;;;10.68;3.38;;;24.00;64.80;;;;;;5074918;28;20524;-59
2021/01/19 12:39:24;;;;;;;8.75;2.85;;;23.90;64.90;;;;;;5074370;28;20020;-64
2021/01/19 12:41:51;;;;;;;12.85;3.63;;;23.90;65.00;;;;;;5074726;28;20036;-61
2021/01/19 12:44:19;;;;;;;12.95;3.75;;;23.80;65.00;;;;;;5074602;28;20487;-61
2021/01/19 12:46:46;;;;;;;10.25;3.40;;;23.80;65.30;;;;;;5074522;28;20032;-61
2021/01/19 12:49:13;;;;;;;11.77;3.63;;;23.80;65.50;;;;;;5074575;28;20417;-63
2021/01/19 12:51:41;;;;;;;14.48;4.00;;;23.70;65.60;;;;;;5074240;28;20058;-64
2021/01/19 12:54:08;;;;;;;10.48;3.13;;;23.70;65.70;;;;;;5074460;28;20017;-65
2021/01/19 12:56:37;;;;;;;9.57;3.17;;;23.70;65.70;;;;;;5074628;28;20024;-57
2021/01/19 12:59:05;;;;;;;9.55;3.58;;;23.70;65.70;;;;;;5074501;28;20020;-63